^^

Metar (rayon 200 km actualisée toutes les 30 minutes)






LFBU - Brie/Champniers, France
Distance de la station: SSE 07km
Mise à jour: 01/08/2014 15:30
Couvert
Couvert
 Wind from O
Vent: O 15 km/h
Température: 24°C
Point de Rosée: 14°C
Humidité: 54%
Baromètre: 1010 hPa
Nuages: Couvert
Visibilité: 10 km
Nuages details: nuageux 1158 m
nuageux 1463 m
Couvert 1707 m
2014/08/01 13:30 LFBU 011330Z AUTO 26008KT 220V300 9999 BKN038 BKN048 OVC056 24/14 Q1010
LFBG - Cognac/Chateaubernard, France
Distance de la station: OSO 35km
Mise à jour: 01/08/2014 15:30
nuageux
nuageux
 Wind from OSO
Vent: OSO 19 km/h
Température: 25°C
Point de Rosée: 13°C
Humidité: 47%
Baromètre: 1010 hPa
Nuages: nuageux
Visibilité: 10 km
Nuages details: nuageux 1402 m
2014/08/01 13:30 LFBG 011330Z AUTO 24010KT 200V260 9999 BKN046 25/13 Q1010
 
LFBL - Limoges/Bellegarde, France
Distance de la station: E 82km
Mise à jour: 01/08/2014 15:30
nuageux
nuageux
 Wind from SO
Vent: SO 13 km/h
Température: 25°C
Point de Rosée: 15°C
Humidité: 54%
Baromètre: 1011 hPa
Nuages: nuageux
Visibilité: 10 km
Nuages details: nuageux 1158 m
nuageux 1463 m
nuageux 1829 m
2014/08/01 13:30 LFBL 011330Z AUTO 22007KT 180V270 9999 BKN038 BKN048 BKN060 25/15 Q1011
LFBI - Poitiers/France
Distance de la station: N 93km
Mise à jour: 01/08/2014 15:30
nuageux
nuageux
 Wind from SO
Vent: SO 20 km/h
Température: 24°C
Point de Rosée: 15°C
Humidité: 57%
Baromètre: 1009 hPa
Nuages: nuageux
Visibilité: 10 km
Nuages details: partiellement nuageux 1250 m
partiellement nuageux 1463 m
nuageux 1646 m
2014/08/01 13:30 LFBI 011330Z AUTO 23011KT 200V270 9999 SCT041 SCT048 BKN054 24/15 Q1009
 
LFBH - La Rochelle/France
Distance de la station: ONO 106km
Mise à jour: 01/08/2014 15:30
nuageux
nuageux
 Wind from NO
Vent: NO 20 km/h
Température: 22°C
Point de Rosée: 15°C
Humidité: 65%
Baromètre: 1010 hPa
Nuages: nuageux
Visibilité: 10 km
Nuages details: Quelques Nuages 945 m
partiellement nuageux 1158 m
nuageux 1341 m
2014/08/01 13:30 LFBH 011330Z AUTO 31011KT 9999 FEW031 SCT038 BKN044 22/15 Q1010
LFBE - Bergerac/France
Distance de la station: SSE 107km
Mise à jour: 01/08/2014 15:30
Orage
Orage
 Wind from OSO
Vent: OSO 15 km/h
Température: 24°C
Point de Rosée: 16°C
Humidité: 61%
Baromètre: 1010 hPa
Nuages: Orage
Visibilité: 10 km
2014/08/01 13:30 LFBE 011330Z AUTO 25008KT 9999 ///CB 24/16 Q1010
 
LFBD - Bordeaux/France
Distance de la station: SSO 121km
Mise à jour: 01/08/2014 15:30
Orage
Orage
 Wind from variable
Vent: variable 6 km/h
Température: 24°C
Point de Rosée: 15°C
Humidité: 57%
Baromètre: 1011 hPa
Nuages: Orage
Visibilité: 10 km
Nuages details: Quelques Nuages 1189 m
nuageux 1402 m
Couvert 1585 m
2014/08/01 13:30 LFBD 011330Z AUTO VRB03KT 9999 FEW039/// BKN046/// OVC052/// ///CB 24/15 Q1011
LFRI - La Roche-sur-Yon/France
Distance de la station: NO 156km
Mise à jour: 01/08/2014 15:30
Quelques Nuages
Quelques Nuages
 Wind from O
Vent: O 19 km/h
Température: 24°C
Point de Rosée: 14°C
Humidité: 54%
Baromètre: 1009 hPa
Nuages: Quelques Nuages
Visibilité: 10 km
Nuages details: Quelques Nuages 1036 m
2014/08/01 13:30 LFRI 011330Z AUTO 27010KT 9999 FEW034 24/14 Q1009
 
LFBC - Cazaux/France
Distance de la station: SO 167km
Mise à jour: 01/08/2014 15:30
Pluie couvert, Orage
Pluie couvert, Orage
 Wind from O
Vent: O 9 km/h
Température: 20°C
Point de Rosée: 17°C
Humidité: 83%
Baromètre: 1011 hPa
Récapitulatifs: Pluie Couvert
Nuages: Orage
Visibilité: 8 km
Nuages details: Quelques Nuages 1250 m
nuageux 1707 m
nuageux 3048 m
2014/08/01 13:30 LFBC 011330Z AUTO 28005KT 8000 TSRA FEW041/// BKN056/// BKN100/// ///CB 20/17 Q1011
LFLX - Chateauroux/France
Distance de la station: NE 174km
Mise à jour: 01/08/2014 15:30
partiellement nuageux
partiellement nuageux
 Wind from SO
Vent: SO 11 km/h
Température: 26°C
Point de Rosée: 16°C
Humidité: 54%
Baromètre: 1009 hPa
Nuages: partiellement nuageux
Visibilité: 10 km
Nuages details: partiellement nuageux 1402 m
partiellement nuageux 7925 m
2014/08/01 13:30 LFLX 011330Z 23006KT 170V260 9999 SCT046 SCT260 26/16 Q1009 NOSIG
 
LFBA - Agen/France
Distance de la station: SSE 179km
Mise à jour: 01/08/2014 15:30
Orage à proximité, Orage
Orage à proximité, Orage
 Wind from ONO
Vent: ONO 13 km/h
Température: 25°C
Point de Rosée: 16°C
Humidité: 57%
Baromètre: 1010 hPa
Récapitulatifs: Orage à Proximité
Nuages: Orage
Visibilité: 10 km
Nuages details: partiellement nuageux 1402 m
nuageux 3048 m
nuageux 3658 m
2014/08/01 13:30 LFBA 011330Z AUTO 29007KT 9999 VCTS SCT046/// BKN100/// BKN120/// ///CB 25/16 Q1010